createdAt,value
2022-08-21T00:00:20.809Z,18.58
2022-08-21T00:03:09.605Z,18.51
2022-08-21T00:05:40.535Z,18.45
2022-08-21T00:08:07.748Z,18.38
2022-08-21T00:10:34.877Z,18.34
2022-08-21T00:13:03.595Z,18.34
2022-08-21T00:15:35.868Z,18.11
2022-08-21T00:18:03.964Z,18.31
2022-08-21T00:20:31.246Z,18.22
2022-08-21T00:22:59.013Z,18.12
2022-08-21T00:25:27.152Z,18.08
2022-08-21T00:27:55.131Z,18.12
2022-08-21T00:30:23.845Z,18.23
2022-08-21T00:32:51.242Z,18.17
2022-08-21T00:35:22.048Z,18.21
2022-08-21T00:37:50.269Z,18.28
2022-08-21T00:40:22.612Z,18.25
2022-08-21T00:42:53.837Z,18.14
2022-08-21T00:45:22.975Z,18.17
2022-08-21T00:47:51.867Z,18.09
2022-08-21T00:50:21.698Z,18.00
2022-08-21T00:52:51.461Z,17.97
2022-08-21T00:55:19.772Z,17.95
2022-08-21T00:57:52.434Z,18.01
2022-08-21T01:02:54.208Z,17.76
2022-08-21T01:05:21.240Z,17.64
2022-08-21T01:07:48.020Z,17.71
2022-08-21T01:10:23.829Z,17.73
2022-08-21T01:12:53.347Z,17.82
2022-08-21T01:15:21.531Z,17.78
2022-08-21T01:17:50.156Z,17.70
2022-08-21T01:20:17.613Z,17.60
2022-08-21T01:22:44.471Z,17.56
2022-08-21T01:25:12.298Z,17.52
2022-08-21T01:27:39.681Z,17.24
2022-08-21T01:30:16.142Z,17.36
2022-08-21T01:32:43.437Z,17.41
2022-08-21T01:35:10.738Z,17.30
2022-08-21T01:37:37.472Z,17.42
2022-08-21T01:40:06.305Z,17.40
2022-08-21T01:42:32.989Z,17.42
2022-08-21T01:45:00.317Z,17.38
2022-08-21T01:47:26.964Z,17.32
2022-08-21T01:49:54.181Z,17.13
2022-08-21T01:52:20.883Z,16.99
2022-08-21T01:54:54.922Z,17.05
2022-08-21T01:57:22.148Z,17.08
2022-08-21T01:59:52.631Z,17.17
2022-08-21T02:02:19.322Z,17.01
2022-08-21T02:04:45.953Z,16.98
2022-08-21T02:07:12.681Z,16.90
2022-08-21T02:09:40.185Z,16.89
2022-08-21T02:12:07.275Z,16.92
2022-08-21T02:14:33.950Z,16.93
2022-08-21T02:17:08.943Z,16.95
2022-08-21T02:19:40.182Z,16.95
2022-08-21T02:22:09.598Z,16.82
2022-08-21T02:24:37.080Z,16.73
2022-08-21T02:27:24.656Z,16.80
2022-08-21T02:29:53.844Z,16.70
2022-08-21T02:32:21.028Z,16.70
2022-08-21T02:34:47.781Z,16.67
2022-08-21T02:37:14.387Z,16.65
2022-08-21T02:39:40.999Z,16.66
2022-08-21T02:42:07.923Z,16.62
2022-08-21T02:44:34.920Z,16.66
2022-08-21T02:47:01.806Z,16.69
2022-08-21T02:49:28.434Z,16.72
2022-08-21T02:51:55.140Z,16.67
2022-08-21T02:54:22.300Z,16.59
2022-08-21T02:56:48.858Z,16.51
2022-08-21T02:59:15.458Z,16.39
2022-08-21T03:01:42.145Z,16.41
2022-08-21T03:04:08.837Z,16.46
2022-08-21T03:06:35.436Z,16.47
2022-08-21T03:09:02.077Z,16.45
2022-08-21T03:11:28.842Z,16.44
2022-08-21T03:13:55.589Z,16.38
2022-08-21T03:16:22.302Z,16.42
2022-08-21T03:18:49.006Z,16.39
2022-08-21T03:21:15.608Z,16.30
2022-08-21T03:23:44.084Z,16.33
2022-08-21T03:26:11.868Z,16.32
2022-08-21T03:28:39.914Z,16.25
2022-08-21T03:31:06.972Z,16.27
2022-08-21T03:33:33.935Z,16.42
2022-08-21T03:36:04.110Z,16.41
2022-08-21T03:38:32.136Z,16.40
2022-08-21T03:40:59.250Z,16.38
2022-08-21T03:43:25.976Z,16.49
2022-08-21T03:45:52.756Z,16.45
2022-08-21T03:48:20.190Z,16.47
2022-08-21T03:50:48.365Z,16.52
2022-08-21T03:53:17.679Z,16.42
2022-08-21T03:55:47.695Z,16.45
2022-08-21T03:58:17.758Z,16.50
2022-08-21T04:00:49.345Z,16.47
2022-08-21T04:03:16.730Z,16.51
2022-08-21T04:05:44.142Z,16.51
2022-08-21T04:08:10.752Z,16.51
2022-08-21T04:10:39.329Z,16.45
2022-08-21T04:13:07.199Z,16.43
2022-08-21T04:15:34.429Z,16.42
2022-08-21T04:18:01.358Z,16.43
2022-08-21T04:20:28.092Z,16.35
2022-08-21T04:22:55.182Z,16.39
2022-08-21T04:25:23.351Z,16.44
2022-08-21T04:27:50.149Z,16.43
2022-08-21T04:30:17.791Z,16.49
2022-08-21T04:32:46.246Z,16.40
2022-08-21T04:35:13.829Z,16.32
2022-08-21T04:37:42.151Z,16.36
2022-08-21T04:40:11.168Z,16.34
2022-08-21T04:42:47.806Z,16.32
2022-08-21T04:45:26.189Z,16.27
2022-08-21T04:47:54.496Z,16.25
2022-08-21T04:50:42.981Z,16.29
2022-08-21T04:53:29.339Z,16.32
2022-08-21T04:55:58.152Z,16.30
2022-08-21T04:58:26.555Z,16.27
2022-08-21T05:00:55.408Z,16.27
2022-08-21T05:03:22.770Z,16.28
2022-08-21T05:05:50.066Z,16.32
2022-08-21T05:08:20.759Z,16.31
2022-08-21T05:10:47.690Z,16.27
2022-08-21T05:13:14.873Z,16.30
2022-08-21T05:15:41.905Z,16.33
2022-08-21T05:18:08.764Z,16.36
2022-08-21T05:20:35.960Z,16.42
2022-08-21T05:23:09.233Z,16.46
2022-08-21T05:25:36.392Z,16.49
2022-08-21T05:28:03.391Z,16.47
2022-08-21T05:30:30.085Z,16.49
2022-08-21T05:32:58.207Z,16.53
2022-08-21T05:35:25.115Z,16.60
2022-08-21T05:37:51.773Z,16.64
2022-08-21T05:40:21.503Z,16.60
2022-08-21T05:42:54.385Z,16.66
2022-08-21T05:45:31.616Z,16.64
2022-08-21T05:48:23.871Z,16.65
2022-08-21T05:50:52.859Z,16.66
2022-08-21T05:53:21.017Z,16.66
2022-08-21T05:55:48.176Z,16.64
2022-08-21T05:58:16.687Z,16.70
2022-08-21T06:00:44.818Z,16.77
2022-08-21T06:03:16.665Z,16.78
2022-08-21T06:05:43.580Z,16.90
2022-08-21T06:08:10.349Z,16.95
2022-08-21T06:10:37.047Z,17.01
2022-08-21T06:13:03.854Z,17.06
2022-08-21T06:15:30.449Z,17.14
2022-08-21T06:17:57.124Z,17.13
2022-08-21T06:20:24.028Z,17.02
2022-08-21T06:22:50.901Z,17.13
2022-08-21T06:25:17.716Z,17.21
2022-08-21T06:27:44.401Z,17.29
2022-08-21T06:30:12.042Z,17.18
2022-08-21T06:32:38.799Z,17.33
2022-08-21T06:35:07.338Z,17.35
2022-08-21T06:37:34.395Z,17.49
2022-08-21T06:40:01.056Z,17.58
2022-08-21T06:42:29.225Z,17.66
2022-08-21T06:44:55.920Z,17.77
2022-08-21T06:47:22.565Z,17.86
2022-08-21T06:49:49.178Z,17.86
2022-08-21T06:52:16.494Z,18.03
2022-08-21T06:54:43.232Z,18.23
2022-08-21T06:57:09.971Z,18.19
2022-08-21T06:59:36.781Z,18.35
2022-08-21T07:02:03.948Z,18.44
2022-08-21T07:04:31.035Z,18.57
2022-08-21T07:06:57.723Z,18.70
2022-08-21T07:09:24.918Z,18.80
2022-08-21T07:11:53.719Z,18.98
2022-08-21T07:14:20.747Z,19.14
2022-08-21T07:16:48.548Z,19.28
2022-08-21T07:19:15.204Z,19.51
2022-08-21T07:21:41.898Z,19.59
2022-08-21T07:24:08.593Z,19.73
2022-08-21T07:26:35.230Z,19.71
2022-08-21T07:29:02.034Z,19.94
2022-08-21T07:31:29.173Z,20.13
2022-08-21T07:33:55.910Z,20.07
2022-08-21T07:36:22.836Z,20.14
2022-08-21T07:38:52.691Z,20.18
2022-08-21T07:41:25.462Z,20.17
2022-08-21T07:43:52.792Z,20.34
2022-08-21T07:46:20.000Z,20.42
2022-08-21T07:48:46.630Z,20.57
2022-08-21T07:51:16.162Z,20.75
2022-08-21T07:53:42.871Z,20.99
2022-08-21T07:56:09.983Z,21.15
2022-08-21T07:58:36.835Z,21.20
2022-08-21T08:01:03.620Z,21.47
2022-08-21T08:03:30.376Z,21.58
2022-08-21T08:05:58.019Z,21.70
2022-08-21T08:08:25.144Z,21.98
2022-08-21T08:10:52.223Z,21.99
2022-08-21T08:13:18.960Z,22.12
2022-08-21T08:15:45.702Z,22.07
2022-08-21T08:18:12.561Z,22.28
2022-08-21T08:20:39.235Z,22.42
2022-08-21T08:23:05.893Z,22.49
2022-08-21T08:25:36.323Z,22.56
2022-08-21T08:28:17.218Z,22.72
2022-08-21T08:30:46.034Z,22.86
2022-08-21T08:33:12.850Z,23.10
2022-08-21T08:35:41.365Z,23.25
2022-08-21T08:38:09.601Z,23.26
2022-08-21T08:40:43.219Z,23.51
2022-08-21T08:43:15.020Z,23.56
2022-08-21T08:45:46.048Z,23.74
2022-08-21T08:48:16.418Z,23.84
2022-08-21T08:51:12.341Z,23.60
2022-08-21T08:53:54.896Z,23.66
2022-08-21T08:56:27.449Z,23.72
2022-08-21T08:58:55.498Z,23.96
2022-08-21T09:01:22.248Z,24.14
2022-08-21T09:03:51.220Z,24.10
2022-08-21T09:06:38.842Z,24.26
2022-08-21T09:09:31.013Z,24.26
2022-08-21T09:12:27.394Z,24.39
2022-08-21T09:15:31.183Z,24.46
2022-08-21T09:18:11.371Z,24.09
2022-08-21T09:21:04.388Z,24.03
2022-08-21T09:23:50.943Z,23.80
2022-08-21T09:26:21.265Z,23.75
2022-08-21T09:28:54.625Z,23.56
2022-08-21T09:31:33.911Z,23.37
2022-08-21T09:34:13.137Z,23.34
2022-08-21T09:36:48.670Z,23.61
2022-08-21T09:39:28.431Z,23.83
2022-08-21T09:42:00.298Z,23.87
2022-08-21T09:44:33.258Z,23.78
2022-08-21T09:47:00.390Z,23.96
2022-08-21T09:49:32.297Z,24.16
2022-08-21T09:52:00.118Z,24.27
2022-08-21T09:54:36.214Z,24.42
2022-08-21T09:57:42.665Z,24.70
2022-08-21T10:00:26.776Z,24.94
2022-08-21T10:02:54.115Z,25.05
2022-08-21T10:05:26.809Z,25.20
2022-08-21T10:07:54.190Z,25.37
2022-08-21T10:10:31.900Z,25.51
2022-08-21T10:13:15.213Z,25.57
2022-08-21T10:16:17.503Z,25.59
2022-08-21T10:18:53.014Z,25.32
2022-08-21T10:21:33.133Z,25.26
2022-08-21T10:24:30.524Z,25.18
2022-08-21T10:27:28.636Z,25.46
2022-08-21T10:30:00.953Z,25.66
2022-08-21T10:33:08.702Z,25.91
2022-08-21T10:35:45.636Z,25.82
2022-08-21T10:39:23.387Z,25.86
2022-08-21T10:42:33.424Z,26.14
2022-08-21T10:45:15.826Z,26.30
2022-08-21T10:47:52.904Z,26.35
2022-08-21T10:50:43.568Z,26.23
2022-08-21T10:53:23.657Z,26.07
2022-08-21T10:56:04.282Z,26.02
2022-08-21T10:58:35.129Z,26.26
2022-08-21T11:01:34.893Z,25.78
2022-08-21T11:04:24.739Z,25.72
2022-08-21T11:07:45.898Z,25.89
2022-08-21T11:10:40.771Z,26.19
2022-08-21T11:13:39.024Z,26.57
2022-08-21T11:16:39.150Z,26.86
2022-08-21T11:19:33.166Z,27.10
2022-08-21T11:22:22.894Z,26.90
2022-08-21T11:25:15.649Z,26.98
2022-08-21T11:27:46.793Z,26.81
2022-08-21T11:30:14.236Z,26.40
2022-08-21T11:33:08.750Z,26.30
2022-08-21T11:35:49.765Z,26.36
2022-08-21T11:38:54.714Z,26.16
2022-08-21T11:41:28.845Z,26.39
2022-08-21T11:44:11.043Z,26.07
2022-08-21T11:47:06.034Z,26.05
2022-08-21T11:49:47.664Z,26.29
2022-08-21T11:52:26.018Z,26.43
2022-08-21T11:55:04.433Z,26.32
2022-08-21T11:57:36.289Z,26.43
2022-08-21T12:00:18.529Z,26.68
2022-08-21T12:02:54.870Z,26.57
2022-08-21T12:05:29.830Z,26.64
2022-08-21T12:08:14.884Z,26.76
2022-08-21T12:10:47.620Z,26.96
2022-08-21T12:13:36.669Z,27.01
2022-08-21T12:16:17.227Z,27.05
2022-08-21T12:18:44.395Z,27.19
2022-08-21T12:21:26.792Z,27.30
2022-08-21T12:24:45.684Z,27.37
2022-08-21T12:27:31.306Z,27.43
2022-08-21T12:30:01.459Z,27.68
2022-08-21T12:32:46.675Z,27.18
2022-08-21T12:35:24.736Z,27.34
2022-08-21T12:38:02.191Z,27.80
2022-08-21T12:40:32.926Z,27.85
2022-08-21T12:43:02.084Z,28.04
2022-08-21T12:45:42.651Z,27.89
2022-08-21T12:48:18.946Z,28.02
2022-08-21T12:50:57.721Z,28.32
2022-08-21T12:53:41.820Z,28.21
2022-08-21T12:56:14.701Z,28.12
2022-08-21T12:58:46.830Z,27.94
2022-08-21T13:01:31.315Z,28.07
2022-08-21T13:04:08.832Z,28.30
2022-08-21T13:06:41.095Z,28.28
2022-08-21T13:09:11.540Z,28.39
2022-08-21T13:11:43.215Z,28.58
2022-08-21T13:14:24.957Z,28.42
2022-08-21T13:16:55.848Z,28.22
2022-08-21T13:19:24.138Z,28.19
2022-08-21T13:21:51.413Z,28.45
2022-08-21T13:24:43.584Z,28.50
2022-08-21T13:27:40.093Z,28.27
2022-08-21T13:30:15.957Z,28.47
2022-08-21T13:32:52.282Z,28.40
2022-08-21T13:35:26.822Z,28.15
2022-08-21T13:37:53.870Z,27.85
2022-08-21T13:40:29.511Z,28.15
2022-08-21T13:42:57.561Z,28.27
2022-08-21T13:45:27.985Z,28.25
2022-08-21T13:47:55.317Z,28.49
2022-08-21T13:50:24.274Z,28.54
2022-08-21T13:53:02.738Z,28.59
2022-08-21T13:55:38.689Z,28.69
2022-08-21T13:58:06.014Z,28.85
2022-08-21T14:00:36.804Z,28.77
2022-08-21T14:03:07.602Z,28.90
2022-08-21T14:05:36.749Z,29.00
2022-08-21T14:08:13.038Z,29.09
2022-08-21T14:10:48.262Z,29.22
2022-08-21T14:13:44.246Z,28.92
2022-08-21T14:16:20.250Z,28.87
2022-08-21T14:19:21.035Z,28.87
2022-08-21T14:21:48.036Z,29.03
2022-08-21T14:24:30.566Z,29.13
2022-08-21T14:27:08.295Z,29.01
2022-08-21T14:29:38.170Z,29.24
2022-08-21T14:32:24.700Z,29.27
2022-08-21T14:34:52.116Z,29.29
2022-08-21T14:37:18.900Z,29.28
2022-08-21T14:39:46.243Z,29.43
2022-08-21T14:42:13.890Z,29.48
2022-08-21T14:44:40.524Z,29.25
2022-08-21T14:47:07.227Z,29.33
2022-08-21T14:49:33.877Z,29.15
2022-08-21T14:52:00.474Z,29.24
2022-08-21T14:54:31.092Z,29.17
2022-08-21T14:57:05.834Z,28.99
2022-08-21T14:59:34.193Z,29.13
2022-08-21T15:02:01.994Z,29.18
2022-08-21T15:04:28.888Z,29.25
2022-08-21T15:06:55.565Z,28.99
2022-08-21T15:09:22.492Z,28.96
2022-08-21T15:11:49.378Z,29.06
2022-08-21T15:14:20.957Z,29.27
2022-08-21T15:16:48.879Z,29.26
2022-08-21T15:19:15.512Z,29.22
2022-08-21T15:21:42.517Z,29.03
2022-08-21T15:24:09.165Z,29.05
2022-08-21T15:26:37.217Z,28.76
2022-08-21T15:29:06.689Z,29.06
2022-08-21T15:31:33.860Z,28.86
2022-08-21T15:34:00.507Z,28.65
2022-08-21T15:36:27.534Z,28.61
2022-08-21T15:38:54.141Z,28.92
2022-08-21T15:41:20.760Z,28.71
2022-08-21T15:43:50.641Z,28.56
2022-08-21T15:46:18.913Z,28.70
2022-08-21T15:48:47.286Z,28.61
2022-08-21T15:51:15.401Z,28.48
2022-08-21T15:53:43.205Z,28.32
2022-08-21T15:56:22.555Z,28.51
2022-08-21T15:58:50.895Z,28.61
2022-08-21T16:01:17.591Z,28.72
2022-08-21T16:03:47.700Z,28.70
2022-08-21T16:06:14.346Z,28.60
2022-08-21T16:08:41.186Z,28.42
2022-08-21T16:11:07.951Z,28.11
2022-08-21T16:13:38.941Z,27.95
2022-08-21T16:16:06.618Z,27.95
2022-08-21T16:18:33.387Z,28.03
2022-08-21T16:21:00.095Z,27.97
2022-08-21T16:23:27.006Z,28.16
2022-08-21T16:25:53.968Z,28.10
2022-08-21T16:28:21.549Z,28.09
2022-08-21T16:30:49.828Z,28.12
2022-08-21T16:33:29.883Z,28.01
2022-08-21T16:35:56.930Z,27.87
2022-08-21T16:38:23.593Z,27.99
2022-08-21T16:40:50.309Z,27.88
2022-08-21T16:43:17.075Z,27.41
2022-08-21T16:45:44.259Z,27.28
2022-08-21T16:48:11.309Z,27.32
2022-08-21T16:50:38.418Z,27.20
2022-08-21T16:53:05.741Z,27.13
2022-08-21T16:55:34.401Z,27.02
2022-08-21T16:58:03.693Z,27.02
2022-08-21T17:00:30.910Z,26.80
2022-08-21T17:02:57.762Z,26.75
2022-08-21T17:05:24.494Z,26.77
2022-08-21T17:07:51.111Z,26.76
2022-08-21T17:10:19.398Z,26.82
2022-08-21T17:12:55.969Z,26.62
2022-08-21T17:15:26.716Z,26.50
2022-08-21T17:17:53.642Z,26.57
2022-08-21T17:20:21.219Z,26.66
2022-08-21T17:22:48.756Z,26.60
2022-08-21T17:25:16.392Z,26.37
2022-08-21T17:27:44.316Z,26.35
2022-08-21T17:30:12.996Z,26.23
2022-08-21T17:32:40.053Z,26.05
2022-08-21T17:35:07.191Z,26.08
2022-08-21T17:37:34.219Z,25.88
2022-08-21T17:40:02.052Z,25.92
2022-08-21T17:42:30.274Z,25.94
2022-08-21T17:44:57.747Z,25.88
2022-08-21T17:47:25.005Z,25.52
2022-08-21T17:49:51.680Z,25.52
2022-08-21T17:52:18.375Z,25.31
2022-08-21T17:54:45.084Z,25.25
2022-08-21T17:57:19.352Z,25.36
2022-08-21T17:59:46.109Z,25.33
2022-08-21T18:02:19.477Z,25.25
2022-08-21T18:04:46.817Z,25.07
2022-08-21T18:07:31.778Z,25.11
2022-08-21T18:10:04.772Z,24.96
2022-08-21T18:12:32.534Z,24.79
2022-08-21T18:15:00.667Z,24.85
2022-08-21T18:17:29.888Z,24.83
2022-08-21T18:19:56.811Z,24.76
2022-08-21T18:22:23.523Z,24.68
2022-08-21T18:24:50.295Z,24.60
2022-08-21T18:27:17.660Z,24.50
2022-08-21T18:29:47.179Z,24.44
2022-08-21T18:32:30.476Z,24.40
2022-08-21T18:34:59.914Z,24.24
2022-08-21T18:37:26.653Z,23.94
2022-08-21T18:39:53.450Z,23.93
2022-08-21T18:42:20.388Z,23.87
2022-08-21T18:44:57.814Z,23.72
2022-08-21T18:47:28.926Z,23.67
2022-08-21T18:49:55.622Z,23.67
2022-08-21T18:52:22.246Z,23.69
2022-08-21T18:54:55.004Z,23.49
2022-08-21T18:57:23.055Z,23.27
2022-08-21T18:59:49.773Z,22.93
2022-08-21T19:02:16.537Z,22.85
2022-08-21T19:07:30.643Z,22.76
2022-08-21T19:12:44.763Z,22.62
2022-08-21T19:15:17.989Z,22.51
2022-08-21T19:17:47.058Z,22.48
2022-08-21T19:20:26.163Z,22.34
2022-08-21T19:22:56.393Z,22.20
2022-08-21T19:25:33.471Z,22.25
2022-08-21T19:28:10.859Z,22.19
2022-08-21T19:30:45.809Z,22.10
2022-08-21T19:36:05.994Z,22.00
2022-08-21T19:38:33.095Z,21.90
2022-08-21T19:41:00.260Z,21.79
2022-08-21T19:43:27.287Z,21.69
2022-08-21T19:45:57.395Z,21.56
2022-08-21T19:48:25.036Z,21.40
2022-08-21T19:50:53.003Z,21.13
2022-08-21T19:53:20.439Z,21.41
2022-08-21T19:55:48.197Z,21.39
2022-08-21T19:58:29.043Z,21.30
2022-08-21T20:00:55.798Z,21.19
2022-08-21T20:03:22.474Z,21.17
2022-08-21T20:05:49.335Z,21.08
2022-08-21T20:08:20.164Z,21.03
2022-08-21T20:10:47.404Z,20.88
2022-08-21T20:13:17.926Z,20.94
2022-08-21T20:15:45.758Z,20.92
2022-08-21T20:18:13.573Z,20.68
2022-08-21T20:20:40.500Z,20.61
2022-08-21T20:23:10.565Z,20.63
2022-08-21T20:25:38.946Z,20.47
2022-08-21T20:28:06.513Z,20.40
2022-08-21T20:30:35.120Z,20.46
2022-08-21T20:33:01.950Z,20.26
2022-08-21T20:35:29.088Z,20.28
2022-08-21T20:37:58.599Z,20.21
2022-08-21T20:40:29.169Z,20.17
2022-08-21T20:42:59.574Z,19.96
2022-08-21T20:45:32.231Z,20.05
2022-08-21T20:48:06.240Z,19.92
2022-08-21T20:50:36.960Z,19.79
2022-08-21T20:53:12.844Z,19.93
2022-08-21T20:55:45.995Z,19.80
2022-08-21T20:58:21.447Z,19.87
2022-08-21T21:00:49.774Z,19.87
2022-08-21T21:03:30.080Z,19.52
2022-08-21T21:06:03.865Z,19.57
2022-08-21T21:08:49.062Z,19.67
2022-08-21T21:11:20.847Z,19.62
2022-08-21T21:14:08.254Z,19.27
2022-08-21T21:16:50.803Z,19.20
2022-08-21T21:19:28.982Z,19.31
2022-08-21T21:22:09.624Z,19.33
2022-08-21T21:24:51.469Z,19.13
2022-08-21T21:27:40.718Z,19.04
2022-08-21T21:30:23.898Z,18.80
2022-08-21T21:32:52.955Z,18.96
2022-08-21T21:35:32.559Z,19.06
2022-08-21T21:38:15.290Z,19.11
2022-08-21T21:40:50.938Z,18.97
2022-08-21T21:43:57.768Z,18.96
2022-08-21T21:46:56.090Z,18.54
2022-08-21T21:49:34.544Z,18.51
2022-08-21T21:52:28.071Z,18.47
2022-08-21T21:55:06.070Z,18.09
2022-08-21T22:01:08.087Z,17.94
2022-08-21T22:04:17.224Z,17.92
2022-08-21T22:07:07.489Z,17.86
2022-08-21T22:09:43.932Z,17.91
2022-08-21T22:12:49.575Z,17.96
2022-08-21T22:15:26.477Z,18.07
2022-08-21T22:18:11.863Z,17.99
2022-08-21T22:20:51.932Z,17.89
2022-08-21T22:23:22.021Z,17.95
2022-08-21T22:25:51.887Z,17.85
2022-08-21T22:28:25.395Z,17.78
2022-08-21T22:30:56.580Z,17.76
2022-08-21T22:33:29.641Z,17.77
2022-08-21T22:35:58.955Z,17.87
2022-08-21T22:38:33.659Z,17.80
2022-08-21T22:41:19.224Z,17.54
2022-08-21T22:44:02.312Z,17.55
2022-08-21T22:46:48.042Z,17.28
2022-08-21T22:49:28.978Z,17.16
2022-08-21T22:52:06.288Z,17.39
2022-08-21T22:54:40.133Z,17.41
2022-08-21T22:57:13.699Z,17.26
2022-08-21T23:00:00.774Z,17.34
2022-08-21T23:02:46.233Z,17.30
2022-08-21T23:05:33.863Z,17.16
2022-08-21T23:08:34.275Z,17.24
2022-08-21T23:11:26.595Z,17.18
2022-08-21T23:13:55.275Z,17.12
2022-08-21T23:17:05.419Z,17.11
2022-08-21T23:20:10.379Z,17.00
2022-08-21T23:23:04.548Z,16.97
2022-08-21T23:26:19.445Z,16.87
2022-08-21T23:29:11.988Z,16.94
2022-08-21T23:32:04.056Z,16.93
2022-08-21T23:34:47.569Z,16.89
2022-08-21T23:37:49.158Z,16.73
2022-08-21T23:40:40.989Z,16.55
2022-08-21T23:43:41.887Z,16.55
2022-08-21T23:46:55.690Z,16.43
2022-08-21T23:49:44.006Z,16.33
2022-08-21T23:55:38.557Z,16.38
2022-08-21T23:58:42.461Z,16.46
